Time;durP1;ratioP1;P1;durP2;ratioP2;P2;SDS_P1;SDS_P2;PMS_P1;PMS_P2;Temp;Humidity;BMP_temperature;BMP_pressure;BME280_temperature;BME280_humidity;BME280_pressure;Samples;Min_cycle;Max_cycle;Signal;HPM_P1;HPM_P2
2021/08/03 00:01:10;;;;;;;0.10;0.10;;;;;;;;;;5098806;28;20209;-67
2021/08/03 00:03:37;;;;;;;0.00;0.00;;;;;;;;;;5084832;28;20276;-68
2021/08/03 00:06:05;;;;;;;0.10;0.10;;;;;;;;;;5084964;28;20382;-67
2021/08/03 00:08:34;;;;;;;0.10;0.10;;;;;;;;;;5084133;28;20252;-68
2021/08/03 00:11:02;;;;;;;0.10;0.10;;;;;;;;;;5098460;28;20272;-67
2021/08/03 00:13:29;;;;;;;0.00;0.00;;;;;;;;;;5092585;28;20425;-67
2021/08/03 00:15:57;;;;;;;0.10;0.10;;;;;;;;;;5104880;28;20206;-67
2021/08/03 00:18:23;;;;;;;0.10;0.10;;;;;;;;;;5097676;28;20304;-68
2021/08/03 00:20:49;;;;;;;0.10;0.10;;;;;;;;;;5084015;28;20220;-67
2021/08/03 00:23:16;;;;;;;0.08;0.08;;;;;;;;;;5103268;28;20250;-68
2021/08/03 00:25:44;;;;;;;0.10;0.10;;;;;;;;;;5104800;28;20204;-67
2021/08/03 00:28:11;;;;;;;0.00;0.00;;;;;;;;;;5104631;28;20208;-67
2021/08/03 00:30:38;;;;;;;0.08;0.08;;;;;;;;;;5104703;28;20282;-67
2021/08/03 00:33:04;;;;;;;0.10;0.10;;;;;;;;;;5088769;28;20213;-66
2021/08/03 00:35:30;;;;;;;0.10;0.10;;;;;;;;;;5091912;28;20200;-67
2021/08/03 00:37:56;;;;;;;0.00;0.00;;;;;;;;;;5104409;28;20492;-67
2021/08/03 00:40:23;;;;;;;0.00;0.00;;;;;;;;;;5089530;28;20201;-67
2021/08/03 00:42:51;;;;;;;0.00;0.00;;;;;;;;;;5092219;28;20478;-67
2021/08/03 00:45:17;;;;;;;0.00;0.00;;;;;;;;;;5098258;28;20205;-67
2021/08/03 00:47:43;;;;;;;0.05;0.05;;;;;;;;;;5094391;28;20248;-67
2021/08/03 00:50:10;;;;;;;0.00;0.00;;;;;;;;;;5101820;28;20378;-67
2021/08/03 00:52:36;;;;;;;0.03;0.03;;;;;;;;;;5091883;28;20209;-67
2021/08/03 00:55:03;;;;;;;0.10;0.10;;;;;;;;;;5093182;28;20204;-67
2021/08/03 00:57:29;;;;;;;0.10;0.10;;;;;;;;;;5086229;28;20283;-66
2021/08/03 00:59:57;;;;;;;0.10;0.10;;;;;;;;;;5103662;28;20212;-66
2021/08/03 01:02:23;;;;;;;0.00;0.00;;;;;;;;;;5103778;28;20269;-65
2021/08/03 01:04:49;;;;;;;0.10;0.10;;;;;;;;;;5096838;28;20257;-66
2021/08/03 01:07:20;;;;;;;0.00;0.00;;;;;;;;;;5083202;28;20503;-67
2021/08/03 01:09:51;;;;;;;0.00;0.00;;;;;;;;;;5083244;28;20199;-67
2021/08/03 01:12:22;;;;;;;0.00;0.00;;;;;;;;;;5083450;28;20231;-67
2021/08/03 01:14:51;;;;;;;0.00;0.00;;;;;;;;;;5084429;28;20356;-67
2021/08/03 01:17:29;;;;;;;0.10;0.10;;;;;;;;;;5095311;28;20296;-67
2021/08/03 01:20:02;;;;;;;0.00;0.00;;;;;;;;;;5098252;28;20233;-68
2021/08/03 01:22:35;;;;;;;0.05;0.05;;;;;;;;;;5083537;28;20199;-68
2021/08/03 01:25:11;;;;;;;0.00;0.00;;;;;;;;;;5097237;28;20197;-68
2021/08/03 01:27:55;;;;;;;0.05;0.05;;;;;;;;;;5096507;28;20199;-68
2021/08/03 01:30:22;;;;;;;0.00;0.00;;;;;;;;;;5103449;28;20253;-68
2021/08/03 01:32:49;;;;;;;0.10;0.10;;;;;;;;;;5103273;28;20246;-67
2021/08/03 01:35:17;;;;;;;0.10;0.10;;;;;;;;;;5089175;28;20249;-67
2021/08/03 01:37:43;;;;;;;0.10;0.10;;;;;;;;;;5090217;28;20300;-67
2021/08/03 01:40:12;;;;;;;0.08;0.08;;;;;;;;;;5104695;28;20273;-68
2021/08/03 01:42:40;;;;;;;0.10;0.10;;;;;;;;;;5102567;28;20275;-67
2021/08/03 01:45:09;;;;;;;0.10;0.10;;;;;;;;;;5084212;28;20246;-67
2021/08/03 01:47:36;;;;;;;0.00;0.00;;;;;;;;;;5096602;28;20427;-68
2021/08/03 01:50:02;;;;;;;0.00;0.00;;;;;;;;;;5083408;28;20273;-67
2021/08/03 01:52:29;;;;;;;0.10;0.10;;;;;;;;;;5083066;28;20197;-67
2021/08/03 01:54:56;;;;;;;0.08;0.08;;;;;;;;;;5094230;28;20203;-68
2021/08/03 01:57:23;;;;;;;0.10;0.10;;;;;;;;;;5100084;28;20215;-68
2021/08/03 01:59:49;;;;;;;0.10;0.10;;;;;;;;;;5086246;28;20212;-67
2021/08/03 02:02:18;;;;;;;0.00;0.00;;;;;;;;;;5088106;28;20382;-66
2021/08/03 02:04:45;;;;;;;0.05;0.05;;;;;;;;;;5100014;28;20271;-67
2021/08/03 02:07:13;;;;;;;0.00;0.00;;;;;;;;;;5086517;28;20429;-67
2021/08/03 02:09:39;;;;;;;0.10;0.10;;;;;;;;;;5086954;28;20560;-66
2021/08/03 02:12:06;;;;;;;0.00;0.00;;;;;;;;;;5098370;28;20223;-67
2021/08/03 02:14:32;;;;;;;0.10;0.10;;;;;;;;;;5092904;28;20240;-68
2021/08/03 02:16:58;;;;;;;0.10;0.10;;;;;;;;;;5106965;28;20203;-69
2021/08/03 02:19:26;;;;;;;0.00;0.00;;;;;;;;;;5090716;28;20286;-66
2021/08/03 02:21:52;;;;;;;0.05;0.05;;;;;;;;;;5094520;28;20211;-68
2021/08/03 02:24:18;;;;;;;0.10;0.10;;;;;;;;;;5092668;28;20252;-66
2021/08/03 02:26:45;;;;;;;0.10;0.10;;;;;;;;;;5106868;28;20200;-67
2021/08/03 02:29:11;;;;;;;0.00;0.00;;;;;;;;;;5106918;28;20204;-66
2021/08/03 02:31:40;;;;;;;0.00;0.00;;;;;;;;;;5102089;28;20224;-66
2021/08/03 02:34:09;;;;;;;0.03;0.03;;;;;;;;;;5086031;28;20207;-67
2021/08/03 02:36:41;;;;;;;0.00;0.00;;;;;;;;;;5089193;28;20197;-67
2021/08/03 02:39:08;;;;;;;0.10;0.10;;;;;;;;;;5106454;28;20240;-67
2021/08/03 02:41:35;;;;;;;0.10;0.10;;;;;;;;;;5089812;28;20204;-67
2021/08/03 02:44:02;;;;;;;0.00;0.00;;;;;;;;;;5086322;28;20270;-67
2021/08/03 02:46:30;;;;;;;0.00;0.00;;;;;;;;;;5085958;28;20204;-67
2021/08/03 02:49:04;;;;;;;0.10;0.10;;;;;;;;;;5086442;28;20209;-67
2021/08/03 02:51:31;;;;;;;0.10;0.10;;;;;;;;;;5086155;28;20237;-67
2021/08/03 02:54:01;;;;;;;0.08;0.08;;;;;;;;;;5105528;28;20277;-67
2021/08/03 02:56:28;;;;;;;0.00;0.00;;;;;;;;;;5106090;28;20207;-67
2021/08/03 02:58:56;;;;;;;0.00;0.00;;;;;;;;;;5106076;28;20521;-66
2021/08/03 03:01:23;;;;;;;0.00;0.00;;;;;;;;;;5095953;28;20215;-67
2021/08/03 03:03:51;;;;;;;0.00;0.00;;;;;;;;;;5100022;28;20515;-66
2021/08/03 03:06:19;;;;;;;0.00;0.00;;;;;;;;;;5094703;28;20495;-67
2021/08/03 03:08:47;;;;;;;0.10;0.10;;;;;;;;;;5105001;28;20482;-67
2021/08/03 03:11:16;;;;;;;0.00;0.00;;;;;;;;;;5092881;28;20566;-67
2021/08/03 03:13:46;;;;;;;0.10;0.10;;;;;;;;;;5106211;28;20384;-67
2021/08/03 03:16:13;;;;;;;0.00;0.00;;;;;;;;;;5091277;28;20262;-66
2021/08/03 03:18:40;;;;;;;0.05;0.05;;;;;;;;;;5085517;28;20227;-67
2021/08/03 03:21:06;;;;;;;0.10;0.10;;;;;;;;;;5104573;28;20196;-67
2021/08/03 03:23:33;;;;;;;0.10;0.10;;;;;;;;;;5094903;28;20205;-66
2021/08/03 03:26:00;;;;;;;0.00;0.00;;;;;;;;;;5102174;28;20271;-66
2021/08/03 03:28:28;;;;;;;0.00;0.00;;;;;;;;;;5096087;28;20204;-65
2021/08/03 03:30:55;;;;;;;0.00;0.00;;;;;;;;;;5085251;28;20580;-66
2021/08/03 03:33:22;;;;;;;0.00;0.00;;;;;;;;;;5085089;28;20205;-66
2021/08/03 03:35:49;;;;;;;0.10;0.10;;;;;;;;;;5099188;28;20326;-66
2021/08/03 03:38:18;;;;;;;0.00;0.00;;;;;;;;;;5099464;28;20496;-66
2021/08/03 03:40:45;;;;;;;0.00;0.00;;;;;;;;;;5097605;28;20260;-67
2021/08/03 03:43:12;;;;;;;0.00;0.00;;;;;;;;;;5091079;28;20262;-66
2021/08/03 03:45:42;;;;;;;0.10;0.10;;;;;;;;;;5106043;28;20474;-67
2021/08/03 03:48:10;;;;;;;0.10;0.10;;;;;;;;;;5105181;28;20250;-67
2021/08/03 03:50:41;;;;;;;0.10;0.10;;;;;;;;;;5085301;28;20252;-67
2021/08/03 03:53:09;;;;;;;0.00;0.00;;;;;;;;;;5097660;28;20242;-67
2021/08/03 03:55:36;;;;;;;0.00;0.00;;;;;;;;;;5090251;28;20199;-67
2021/08/03 03:58:03;;;;;;;0.03;0.03;;;;;;;;;;5094100;28;20199;-67
2021/08/03 04:00:30;;;;;;;0.08;0.08;;;;;;;;;;5084578;28;20402;-67
2021/08/03 04:02:58;;;;;;;0.10;0.10;;;;;;;;;;5084534;28;20195;-67
2021/08/03 04:05:25;;;;;;;0.00;0.00;;;;;;;;;;5095960;28;20264;-67
2021/08/03 04:07:51;;;;;;;0.08;0.08;;;;;;;;;;5104674;28;20232;-67
2021/08/03 04:10:18;;;;;;;0.00;0.00;;;;;;;;;;5091155;28;20488;-68
2021/08/03 04:12:45;;;;;;;0.05;0.05;;;;;;;;;;5104330;28;20548;-68
2021/08/03 04:15:13;;;;;;;0.00;0.00;;;;;;;;;;5104966;28;20207;-69
2021/08/03 04:17:39;;;;;;;0.10;0.10;;;;;;;;;;5086011;28;20224;-70
2021/08/03 04:20:07;;;;;;;0.00;0.00;;;;;;;;;;5094440;28;20210;-69
2021/08/03 04:22:33;;;;;;;0.00;0.00;;;;;;;;;;5103740;28;20204;-68
2021/08/03 04:25:00;;;;;;;0.10;0.10;;;;;;;;;;5104264;28;20195;-68
2021/08/03 04:27:26;;;;;;;0.00;0.00;;;;;;;;;;5089253;28;20218;-69
2021/08/03 04:29:52;;;;;;;0.00;0.00;;;;;;;;;;5090857;28;20226;-69
2021/08/03 04:32:18;;;;;;;0.00;0.00;;;;;;;;;;5091544;28;20221;-69
2021/08/03 04:34:45;;;;;;;0.10;0.10;;;;;;;;;;5084133;28;20201;-70
2021/08/03 04:37:12;;;;;;;0.00;0.00;;;;;;;;;;5094973;28;20215;-69
2021/08/03 04:39:39;;;;;;;0.00;0.00;;;;;;;;;;5101012;28;20211;-69
2021/08/03 04:42:05;;;;;;;0.00;0.00;;;;;;;;;;5093258;28;20195;-70
2021/08/03 04:44:31;;;;;;;0.10;0.10;;;;;;;;;;5089658;28;20213;-70
2021/08/03 04:46:58;;;;;;;0.00;0.00;;;;;;;;;;5104380;28;20200;-70
2021/08/03 04:49:24;;;;;;;0.10;0.10;;;;;;;;;;5094487;28;20381;-70
2021/08/03 04:51:50;;;;;;;0.00;0.00;;;;;;;;;;5097924;28;20599;-68
2021/08/03 04:54:18;;;;;;;0.03;0.03;;;;;;;;;;5084273;28;20207;-68
2021/08/03 04:56:44;;;;;;;0.08;0.08;;;;;;;;;;5103670;28;20218;-68
2021/08/03 04:59:11;;;;;;;0.00;0.00;;;;;;;;;;5083215;28;20283;-68
2021/08/03 05:01:37;;;;;;;0.10;0.10;;;;;;;;;;5083448;28;20290;-69
2021/08/03 05:04:03;;;;;;;0.05;0.05;;;;;;;;;;5083759;28;20205;-68
2021/08/03 05:06:29;;;;;;;0.00;0.00;;;;;;;;;;5094257;28;20206;-69
2021/08/03 05:08:55;;;;;;;0.10;0.10;;;;;;;;;;5103786;28;20203;-69
2021/08/03 05:11:23;;;;;;;0.10;0.10;;;;;;;;;;5103767;28;20206;-69
2021/08/03 05:13:49;;;;;;;0.08;0.08;;;;;;;;;;5088554;28;20205;-69
2021/08/03 05:16:16;;;;;;;0.00;0.00;;;;;;;;;;5090608;28;20514;-69
2021/08/03 05:18:42;;;;;;;0.10;0.10;;;;;;;;;;5090662;28;20428;-69
2021/08/03 05:21:08;;;;;;;0.10;0.10;;;;;;;;;;5097411;28;20207;-68
2021/08/03 05:23:35;;;;;;;0.10;0.10;;;;;;;;;;5083522;28;20207;-68
2021/08/03 05:26:01;;;;;;;0.00;0.00;;;;;;;;;;5083327;28;20204;-68
2021/08/03 05:28:29;;;;;;;0.03;0.03;;;;;;;;;;5083123;28;20214;-68
2021/08/03 05:30:55;;;;;;;0.10;0.10;;;;;;;;;;5083448;28;20272;-68
2021/08/03 05:33:21;;;;;;;0.00;0.00;;;;;;;;;;5081860;28;20231;-68
2021/08/03 05:35:47;;;;;;;0.00;0.00;;;;;;;;;;5096511;28;20207;-69
2021/08/03 05:38:13;;;;;;;0.10;0.10;;;;;;;;;;5083004;28;20213;-68
2021/08/03 05:40:40;;;;;;;0.00;0.00;;;;;;;;;;5083242;28;20503;-69
2021/08/03 05:43:06;;;;;;;0.10;0.10;;;;;;;;;;5086936;28;20248;-69
2021/08/03 05:45:33;;;;;;;0.05;0.05;;;;;;;;;;5093414;28;20407;-69
2021/08/03 05:48:00;;;;;;;0.10;0.10;;;;;;;;;;5095347;28;20204;-68
2021/08/03 05:50:26;;;;;;;0.10;0.10;;;;;;;;;;5103236;28;20278;-68
2021/08/03 05:52:52;;;;;;;0.10;0.10;;;;;;;;;;5103402;28;20232;-68
2021/08/03 05:55:18;;;;;;;0.00;0.00;;;;;;;;;;5101004;28;20209;-68
2021/08/03 05:57:45;;;;;;;0.00;0.00;;;;;;;;;;5091433;28;20199;-68
2021/08/03 06:00:12;;;;;;;0.10;0.10;;;;;;;;;;5088737;28;20329;-69
2021/08/03 06:02:40;;;;;;;0.00;0.00;;;;;;;;;;5102878;28;20387;-70
2021/08/03 06:05:06;;;;;;;0.00;0.00;;;;;;;;;;5090707;28;20257;-69
2021/08/03 06:07:38;;;;;;;0.00;0.00;;;;;;;;;;5098923;28;20198;-70
2021/08/03 06:10:05;;;;;;;0.00;0.00;;;;;;;;;;5103065;28;20275;-69
2021/08/03 06:12:34;;;;;;;0.10;0.10;;;;;;;;;;5101075;28;20264;-69
2021/08/03 06:15:01;;;;;;;0.00;0.00;;;;;;;;;;5094103;28;20218;-68
2021/08/03 06:17:33;;;;;;;0.00;0.00;;;;;;;;;;5098207;28;20211;-68
2021/08/03 06:20:01;;;;;;;0.10;0.10;;;;;;;;;;5096958;28;20415;-69
2021/08/03 06:22:27;;;;;;;0.08;0.08;;;;;;;;;;5098239;28;20207;-69
2021/08/03 06:24:54;;;;;;;0.10;0.10;;;;;;;;;;5097161;28;20205;-69
2021/08/03 06:27:21;;;;;;;0.00;0.00;;;;;;;;;;5093883;28;20540;-68
2021/08/03 06:29:49;;;;;;;0.10;0.10;;;;;;;;;;5098029;28;20352;-68
2021/08/03 06:32:15;;;;;;;0.10;0.10;;;;;;;;;;5097848;28;20222;-69
2021/08/03 06:34:43;;;;;;;0.00;0.00;;;;;;;;;;5097794;28;20283;-68
2021/08/03 06:37:11;;;;;;;0.10;0.10;;;;;;;;;;5097528;28;20202;-68
2021/08/03 06:39:37;;;;;;;0.00;0.00;;;;;;;;;;5097349;28;20199;-68
2021/08/03 06:42:06;;;;;;;0.00;0.00;;;;;;;;;;5098351;28;20293;-70
2021/08/03 06:44:35;;;;;;;0.10;0.10;;;;;;;;;;5100806;28;20245;-70
2021/08/03 06:47:02;;;;;;;0.10;0.10;;;;;;;;;;5104009;28;20277;-70
2021/08/03 06:49:31;;;;;;;0.00;0.00;;;;;;;;;;5101664;28;20257;-69
2021/08/03 06:51:57;;;;;;;0.08;0.08;;;;;;;;;;5100018;28;20276;-70
2021/08/03 06:54:27;;;;;;;0.10;0.10;;;;;;;;;;5103277;28;20212;-69
2021/08/03 06:56:55;;;;;;;0.00;0.00;;;;;;;;;;5100809;28;20195;-68
2021/08/03 06:59:25;;;;;;;0.00;0.00;;;;;;;;;;5103127;28;20517;-69
2021/08/03 07:01:53;;;;;;;0.08;0.08;;;;;;;;;;5102784;28;20205;-69
2021/08/03 07:04:20;;;;;;;0.00;0.00;;;;;;;;;;5104328;28;20217;-69
2021/08/03 07:06:48;;;;;;;0.00;0.00;;;;;;;;;;5104613;28;20273;-69
2021/08/03 07:09:14;;;;;;;0.00;0.00;;;;;;;;;;5102442;28;20199;-67
2021/08/03 07:11:43;;;;;;;0.10;0.10;;;;;;;;;;5101010;28;20270;-67
2021/08/03 07:14:09;;;;;;;0.00;0.00;;;;;;;;;;5101419;28;20212;-68
2021/08/03 07:16:39;;;;;;;0.10;0.10;;;;;;;;;;5102025;28;20280;-69
2021/08/03 07:19:05;;;;;;;0.00;0.00;;;;;;;;;;5102036;28;20234;-69
2021/08/03 07:21:32;;;;;;;0.00;0.00;;;;;;;;;;5101597;28;20204;-69
2021/08/03 07:23:58;;;;;;;0.00;0.00;;;;;;;;;;5100218;28;20203;-68
2021/08/03 07:26:25;;;;;;;0.00;0.00;;;;;;;;;;5101302;28;20291;-68
2021/08/03 07:28:53;;;;;;;0.10;0.10;;;;;;;;;;5101506;28;20498;-69
2021/08/03 07:31:19;;;;;;;0.00;0.00;;;;;;;;;;5102055;28;20763;-69
2021/08/03 07:33:46;;;;;;;0.00;0.00;;;;;;;;;;5100046;28;20275;-68
2021/08/03 07:36:14;;;;;;;0.10;0.10;;;;;;;;;;5099815;28;20207;-68
2021/08/03 07:38:41;;;;;;;0.00;0.00;;;;;;;;;;5101626;28;20250;-68
2021/08/03 07:41:07;;;;;;;0.08;0.08;;;;;;;;;;5100305;28;20217;-69
2021/08/03 07:43:34;;;;;;;0.10;0.10;;;;;;;;;;5101892;28;20243;-68
2021/08/03 07:46:02;;;;;;;0.00;0.00;;;;;;;;;;5101168;28;20208;-68
2021/08/03 07:48:28;;;;;;;0.00;0.00;;;;;;;;;;5098657;28;20227;-68
2021/08/03 07:50:55;;;;;;;0.00;0.00;;;;;;;;;;5100021;28;20203;-68
2021/08/03 07:53:21;;;;;;;0.00;0.00;;;;;;;;;;5100850;28;21481;-68
2021/08/03 07:55:47;;;;;;;0.00;0.00;;;;;;;;;;5099762;28;20515;-68
2021/08/03 07:58:13;;;;;;;0.10;0.10;;;;;;;;;;5101224;28;20540;-67
2021/08/03 08:00:40;;;;;;;0.00;0.00;;;;;;;;;;5099851;28;20213;-68
2021/08/03 08:03:07;;;;;;;0.03;0.03;;;;;;;;;;5101488;28;20208;-68
2021/08/03 08:05:34;;;;;;;0.10;0.10;;;;;;;;;;5099200;28;20246;-68
2021/08/03 08:08:00;;;;;;;0.00;0.00;;;;;;;;;;5100368;28;20503;-68
2021/08/03 08:10:26;;;;;;;0.00;0.00;;;;;;;;;;5100047;28;20217;-68
2021/08/03 08:12:52;;;;;;;0.00;0.00;;;;;;;;;;5100303;28;20290;-68
2021/08/03 08:15:19;;;;;;;0.00;0.00;;;;;;;;;;5100513;28;20485;-69
2021/08/03 08:17:45;;;;;;;0.00;0.00;;;;;;;;;;5099854;28;20232;-68
2021/08/03 08:20:13;;;;;;;0.00;0.00;;;;;;;;;;5099220;28;20206;-68
2021/08/03 08:22:40;;;;;;;0.08;0.08;;;;;;;;;;5097298;28;20499;-69
2021/08/03 08:25:10;;;;;;;0.08;0.08;;;;;;;;;;5098068;28;20215;-69
2021/08/03 08:27:36;;;;;;;0.00;0.00;;;;;;;;;;5096701;28;20207;-70
2021/08/03 08:30:03;;;;;;;0.00;0.00;;;;;;;;;;5100566;28;20243;-70
2021/08/03 08:32:29;;;;;;;0.10;0.10;;;;;;;;;;5099477;28;20224;-68
2021/08/03 08:34:55;;;;;;;0.10;0.10;;;;;;;;;;5100815;28;20208;-70
2021/08/03 08:37:22;;;;;;;0.10;0.10;;;;;;;;;;5099444;28;20509;-68
2021/08/03 08:39:49;;;;;;;0.00;0.00;;;;;;;;;;5100226;28;20254;-69
2021/08/03 08:42:16;;;;;;;0.10;0.10;;;;;;;;;;5099614;28;20205;-68
2021/08/03 08:44:47;;;;;;;0.10;0.10;;;;;;;;;;5099179;28;20432;-68
2021/08/03 08:47:13;;;;;;;0.00;0.00;;;;;;;;;;5097987;28;20206;-68
2021/08/03 08:49:39;;;;;;;0.00;0.00;;;;;;;;;;5099749;28;20226;-68
2021/08/03 08:52:06;;;;;;;0.00;0.00;;;;;;;;;;5097426;28;20219;-68
2021/08/03 08:54:34;;;;;;;0.00;0.00;;;;;;;;;;5100022;28;20472;-68
2021/08/03 08:57:00;;;;;;;0.10;0.10;;;;;;;;;;5100230;28;20222;-68
2021/08/03 08:59:27;;;;;;;0.10;0.10;;;;;;;;;;5099549;28;20247;-69
2021/08/03 09:01:53;;;;;;;0.00;0.00;;;;;;;;;;5098592;28;20206;-69
2021/08/03 09:04:19;;;;;;;0.10;0.10;;;;;;;;;;5098771;28;20238;-70
2021/08/03 09:07:00;;;;;;;0.00;0.00;;;;;;;;;;5099764;28;20203;-68
2021/08/03 09:09:26;;;;;;;0.03;0.03;;;;;;;;;;5098273;28;20210;-68
2021/08/03 09:11:54;;;;;;;0.00;0.00;;;;;;;;;;5099607;28;20443;-68
2021/08/03 09:14:33;;;;;;;0.00;0.00;;;;;;;;;;5098660;28;20232;-68
2021/08/03 09:16:59;;;;;;;0.00;0.00;;;;;;;;;;5099610;28;20275;-69
2021/08/03 09:19:30;;;;;;;0.03;0.03;;;;;;;;;;5097937;28;20232;-70
2021/08/03 09:22:12;;;;;;;0.08;0.08;;;;;;;;;;5100149;28;20211;-69
2021/08/03 09:24:39;;;;;;;0.08;0.08;;;;;;;;;;5099491;28;20200;-68
2021/08/03 09:27:07;;;;;;;0.00;0.00;;;;;;;;;;5098383;28;20209;-68
2021/08/03 09:29:42;;;;;;;0.00;0.00;;;;;;;;;;5098190;28;20545;-69
2021/08/03 09:32:09;;;;;;;0.00;0.00;;;;;;;;;;5098737;28;20206;-69
2021/08/03 09:34:35;;;;;;;0.00;0.00;;;;;;;;;;5096120;28;20566;-69
2021/08/03 09:37:01;;;;;;;0.00;0.00;;;;;;;;;;5098365;28;20213;-67
2021/08/03 09:39:34;;;;;;;0.10;0.10;;;;;;;;;;5097754;28;20203;-68
2021/08/03 09:42:00;;;;;;;0.00;0.00;;;;;;;;;;5098075;28;20374;-67
2021/08/03 09:44:28;;;;;;;0.00;0.00;;;;;;;;;;5096989;28;20207;-68
2021/08/03 09:46:57;;;;;;;0.10;0.10;;;;;;;;;;5098115;28;20209;-68
2021/08/03 09:49:32;;;;;;;0.00;0.00;;;;;;;;;;5098351;28;20231;-69
2021/08/03 09:52:05;;;;;;;0.10;0.10;;;;;;;;;;5097087;28;20245;-68
2021/08/03 09:54:31;;;;;;;0.05;0.05;;;;;;;;;;5099135;28;20211;-68
2021/08/03 09:56:57;;;;;;;0.10;0.10;;;;;;;;;;5095367;28;20254;-69
2021/08/03 09:59:34;;;;;;;0.00;0.00;;;;;;;;;;5097861;28;20513;-68
2021/08/03 10:02:00;;;;;;;0.05;0.05;;;;;;;;;;5097604;28;20880;-68
2021/08/03 10:04:26;;;;;;;0.00;0.00;;;;;;;;;;5097783;28;20213;-67
2021/08/03 10:06:53;;;;;;;0.00;0.00;;;;;;;;;;5097789;28;20256;-68
2021/08/03 10:09:21;;;;;;;0.00;0.00;;;;;;;;;;5097803;28;20516;-69
2021/08/03 10:11:48;;;;;;;0.00;0.00;;;;;;;;;;5096350;28;20207;-69
2021/08/03 10:14:14;;;;;;;0.10;0.10;;;;;;;;;;5097944;28;20224;-69
2021/08/03 10:16:44;;;;;;;0.00;0.00;;;;;;;;;;5098375;28;20244;-68
2021/08/03 10:19:10;;;;;;;0.00;0.00;;;;;;;;;;5098384;28;20564;-68
2021/08/03 10:21:38;;;;;;;0.03;0.03;;;;;;;;;;5103514;28;20495;-69
2021/08/03 10:24:20;;;;;;;0.00;0.00;;;;;;;;;;5101959;28;20213;-68
2021/08/03 10:27:01;;;;;;;0.00;0.00;;;;;;;;;;5102724;28;20239;-68
2021/08/03 10:29:27;;;;;;;0.00;0.00;;;;;;;;;;5102322;28;20274;-68
2021/08/03 10:31:55;;;;;;;0.00;0.00;;;;;;;;;;5100494;28;20205;-67
2021/08/03 10:34:40;;;;;;;0.00;0.00;;;;;;;;;;5101559;28;20237;-68
2021/08/03 10:37:06;;;;;;;0.10;0.10;;;;;;;;;;5102698;28;20537;-68
2021/08/03 10:39:48;;;;;;;0.00;0.00;;;;;;;;;;5102075;28;20244;-67
2021/08/03 10:42:14;;;;;;;0.00;0.00;;;;;;;;;;5101355;28;20251;-67
2021/08/03 10:44:42;;;;;;;0.00;0.00;;;;;;;;;;5102488;28;20263;-67
2021/08/03 10:47:26;;;;;;;0.10;0.10;;;;;;;;;;5100558;28;20227;-67
2021/08/03 10:49:55;;;;;;;0.00;0.00;;;;;;;;;;5101205;28;20251;-67
2021/08/03 10:52:36;;;;;;;0.00;0.00;;;;;;;;;;5101117;28;20212;-67
2021/08/03 10:55:02;;;;;;;0.00;0.00;;;;;;;;;;5101988;28;20306;-66
2021/08/03 10:57:29;;;;;;;0.00;0.00;;;;;;;;;;5101354;28;20424;-66
2021/08/03 11:00:02;;;;;;;0.00;0.00;;;;;;;;;;5101065;28;20251;-67
2021/08/03 11:02:45;;;;;;;0.00;0.00;;;;;;;;;;5100460;28;20440;-67
2021/08/03 11:08:30;;;;;;;0.00;0.00;;;;;;;;;;5137047;27;20633;-68
2021/08/03 11:10:57;;;;;;;0.00;0.00;;;;;;;;;;5136377;28;20200;-68
2021/08/03 11:13:35;;;;;;;0.05;0.05;;;;;;;;;;5136533;28;20225;-69
2021/08/03 11:16:01;;;;;;;0.03;0.03;;;;;;;;;;5136364;28;20381;-69
2021/08/03 11:18:38;;;;;;;0.00;0.00;;;;;;;;;;5135474;27;20237;-68
2021/08/03 11:21:05;;;;;;;0.10;0.10;;;;;;;;;;5136532;28;20204;-68
2021/08/03 11:23:50;;;;;;;0.00;0.00;;;;;;;;;;5136859;27;20250;-68
2021/08/03 11:26:20;;;;;;;0.10;0.10;;;;;;;;;;5135918;28;20285;-68
2021/08/03 11:28:54;;;;;;;0.00;0.00;;;;;;;;;;5136681;28;20201;-68
2021/08/03 11:31:21;;;;;;;0.00;0.00;;;;;;;;;;5135622;28;20201;-69
2021/08/03 11:33:47;;;;;;;0.00;0.00;;;;;;;;;;5134197;28;20258;-69
2021/08/03 11:36:13;;;;;;;0.00;0.00;;;;;;;;;;5134820;28;20246;-68
2021/08/03 11:38:39;;;;;;;0.10;0.10;;;;;;;;;;5136922;27;20213;-67
2021/08/03 11:41:06;;;;;;;0.00;0.00;;;;;;;;;;5135659;28;20277;-68
2021/08/03 11:43:33;;;;;;;0.00;0.00;;;;;;;;;;5135990;27;20209;-67
2021/08/03 11:46:00;;;;;;;0.00;0.00;;;;;;;;;;5134988;27;20247;-68
2021/08/03 11:48:28;;;;;;;0.10;0.10;;;;;;;;;;5134302;27;20214;-67
2021/08/03 11:50:54;;;;;;;0.00;0.00;;;;;;;;;;5135775;27;20213;-68
2021/08/03 11:53:21;;;;;;;0.00;0.00;;;;;;;;;;5136824;27;20846;-67
2021/08/03 11:55:49;;;;;;;0.00;0.00;;;;;;;;;;5135677;27;20209;-68
2021/08/03 11:58:17;;;;;;;0.00;0.00;;;;;;;;;;5135122;28;20361;-68
2021/08/03 12:00:45;;;;;;;0.00;0.00;;;;;;;;;;5133538;28;20595;-67
2021/08/03 12:03:11;;;;;;;0.00;0.00;;;;;;;;;;5134711;27;20213;-68
2021/08/03 12:05:38;;;;;;;0.00;0.00;;;;;;;;;;5135072;27;20510;-68
2021/08/03 12:08:06;;;;;;;0.00;0.00;;;;;;;;;;5134603;27;20229;-69
2021/08/03 12:10:33;;;;;;;0.00;0.00;;;;;;;;;;5135014;28;20254;-69
2021/08/03 12:12:59;;;;;;;0.00;0.00;;;;;;;;;;5135469;27;20422;-69
2021/08/03 12:15:26;;;;;;;0.00;0.00;;;;;;;;;;5135266;27;20273;-70
2021/08/03 12:18:10;;;;;;;0.00;0.00;;;;;;;;;;5129678;28;20554;-70
2021/08/03 12:20:42;;;;;;;0.00;0.00;;;;;;;;;;5120330;28;20209;-70
2021/08/03 12:23:12;;;;;;;0.00;0.00;;;;;;;;;;5120753;28;20247;-69
2021/08/03 12:25:45;;;;;;;0.00;0.00;;;;;;;;;;5120335;28;20194;-69
2021/08/03 12:28:11;;;;;;;0.00;0.00;;;;;;;;;;5120831;28;20236;-68
2021/08/03 12:30:38;;;;;;;0.00;0.00;;;;;;;;;;5119282;28;20214;-69
2021/08/03 12:33:05;;;;;;;0.00;0.00;;;;;;;;;;5121767;28;20237;-69
2021/08/03 12:35:31;;;;;;;0.10;0.10;;;;;;;;;;5121935;28;20481;-68
2021/08/03 12:38:16;;;;;;;0.00;0.00;;;;;;;;;;5121174;28;20418;-69
2021/08/03 12:40:42;;;;;;;0.00;0.00;;;;;;;;;;5121286;28;20228;-69
2021/08/03 12:43:08;;;;;;;0.00;0.00;;;;;;;;;;5121267;28;20218;-69
2021/08/03 12:45:35;;;;;;;0.10;0.10;;;;;;;;;;5120356;28;20205;-69
2021/08/03 12:48:02;;;;;;;0.00;0.00;;;;;;;;;;5120110;28;20293;-69
2021/08/03 12:50:29;;;;;;;0.00;0.00;;;;;;;;;;5119253;28;20198;-69
2021/08/03 12:52:56;;;;;;;0.00;0.00;;;;;;;;;;5120086;28;20213;-69
2021/08/03 12:55:28;;;;;;;0.00;0.00;;;;;;;;;;5120499;28;20273;-69
2021/08/03 12:57:55;;;;;;;0.00;0.00;;;;;;;;;;5113608;28;20389;-69
2021/08/03 13:00:28;;;;;;;0.00;0.00;;;;;;;;;;5120007;28;20261;-68
2021/08/03 13:02:55;;;;;;;0.00;0.00;;;;;;;;;;5120296;28;20206;-69
2021/08/03 13:05:21;;;;;;;0.00;0.00;;;;;;;;;;5121680;28;20198;-68
2021/08/03 13:07:47;;;;;;;0.00;0.00;;;;;;;;;;5120195;28;20295;-68
2021/08/03 13:10:13;;;;;;;0.00;0.00;;;;;;;;;;5119616;28;20394;-68
2021/08/03 13:12:41;;;;;;;0.00;0.00;;;;;;;;;;5120460;28;20266;-68
2021/08/03 13:15:08;;;;;;;0.03;0.03;;;;;;;;;;5120412;28;20222;-68
2021/08/03 13:17:34;;;;;;;0.00;0.00;;;;;;;;;;5120011;28;20497;-68
2021/08/03 13:20:00;;;;;;;0.00;0.00;;;;;;;;;;5116325;28;20231;-68
2021/08/03 13:22:27;;;;;;;0.00;0.00;;;;;;;;;;5119389;28;20413;-68
2021/08/03 13:24:53;;;;;;;0.00;0.00;;;;;;;;;;5120841;28;20207;-68
2021/08/03 13:27:19;;;;;;;0.00;0.00;;;;;;;;;;5120083;27;20256;-68
2021/08/03 13:29:47;;;;;;;0.00;0.00;;;;;;;;;;5118637;28;20202;-68
2021/08/03 13:32:13;;;;;;;0.00;0.00;;;;;;;;;;5118675;28;20206;-68
2021/08/03 13:34:39;;;;;;;0.00;0.00;;;;;;;;;;5118775;27;20225;-68
2021/08/03 13:37:07;;;;;;;0.00;0.00;;;;;;;;;;5118656;28;20481;-68
2021/08/03 13:39:33;;;;;;;0.00;0.00;;;;;;;;;;5119454;28;20243;-68
2021/08/03 13:41:59;;;;;;;0.00;0.00;;;;;;;;;;5120994;28;20214;-68
2021/08/03 13:44:25;;;;;;;0.00;0.00;;;;;;;;;;5119390;28;20225;-67
2021/08/03 13:46:53;;;;;;;0.00;0.00;;;;;;;;;;5120253;28;20222;-67
2021/08/03 13:49:19;;;;;;;0.00;0.00;;;;;;;;;;5120173;28;20562;-67
2021/08/03 13:51:45;;;;;;;0.00;0.00;;;;;;;;;;5120129;28;20527;-69
2021/08/03 13:54:12;;;;;;;0.00;0.00;;;;;;;;;;5120440;28;20202;-68
2021/08/03 13:56:38;;;;;;;0.00;0.00;;;;;;;;;;5120517;28;20198;-68
2021/08/03 13:59:04;;;;;;;0.00;0.00;;;;;;;;;;5120679;28;20214;-67
2021/08/03 14:01:30;;;;;;;0.00;0.00;;;;;;;;;;5120928;28;20493;-68
2021/08/03 14:03:58;;;;;;;0.00;0.00;;;;;;;;;;5119249;28;20236;-68
2021/08/03 14:06:25;;;;;;;0.03;0.03;;;;;;;;;;5120082;28;20251;-68
2021/08/03 14:08:52;;;;;;;0.00;0.00;;;;;;;;;;5119489;28;20222;-68
2021/08/03 14:11:18;;;;;;;0.00;0.00;;;;;;;;;;5120178;28;20255;-68
2021/08/03 14:13:45;;;;;;;0.00;0.00;;;;;;;;;;5120135;28;20489;-69
2021/08/03 14:16:11;;;;;;;0.00;0.00;;;;;;;;;;5118581;28;20202;-68
2021/08/03 14:18:37;;;;;;;0.00;0.00;;;;;;;;;;5119358;28;20222;-68
2021/08/03 14:21:05;;;;;;;0.00;0.00;;;;;;;;;;5119808;28;20209;-67
2021/08/03 14:23:31;;;;;;;0.10;0.10;;;;;;;;;;5119264;28;20206;-71
2021/08/03 14:25:58;;;;;;;0.00;0.00;;;;;;;;;;5114102;28;20198;-70
2021/08/03 14:28:24;;;;;;;0.00;0.00;;;;;;;;;;5117546;28;20218;-69
2021/08/03 14:30:50;;;;;;;0.28;0.28;;;;;;;;;;5119336;28;20217;-71
2021/08/03 14:33:17;;;;;;;0.00;0.00;;;;;;;;;;5119510;28;20442;-71
2021/08/03 14:35:43;;;;;;;0.00;0.00;;;;;;;;;;5117462;28;20209;-69
2021/08/03 14:38:11;;;;;;;0.00;0.00;;;;;;;;;;5118690;28;20206;-69
2021/08/03 14:40:38;;;;;;;0.10;0.10;;;;;;;;;;5118006;28;20243;-68
2021/08/03 14:43:04;;;;;;;0.00;0.00;;;;;;;;;;5119085;28;20202;-70
2021/08/03 14:45:30;;;;;;;0.00;0.00;;;;;;;;;;5119112;28;20214;-70
2021/08/03 14:47:57;;;;;;;0.00;0.00;;;;;;;;;;5120609;28;20430;-69
2021/08/03 14:50:23;;;;;;;0.00;0.00;;;;;;;;;;5119920;28;20202;-69